Burnham, Illinois
Current Conditions -  °F | °C
As of 2:45 PM on Tuesday 21 Oct 2014 (Local Time) from KGYY Reporting Station
Overcast Overcast  
Wind Chill: 52°   Ceiling: 2500
Heat Index: 52°   Visibility: 10mi
Dew Point: 43°   Wind: 12mph
Humidity: 71%   Direction: 360°N
Pressure: 30.17"   Gusts: 23mph
Location:  41.6563°N, 87.5444°W
Report Text: KGYY 211945Z 36010G20KT 10SM OVC025 11/06 A3017
Loading
Personal Weather Stations






























Interactive Weather Map New forecast layout! Learn more

10-Day Weather Forecast

Advertisements
Track Severe Weather on mobile